createdAt,value
2018-03-07T00:02:26.476Z,89.24
2018-03-07T00:04:54.723Z,89.37
2018-03-07T00:07:23.007Z,88.81
2018-03-07T00:09:51.259Z,88.45
2018-03-07T00:12:19.513Z,88.04
2018-03-07T00:14:48.571Z,88.41
2018-03-07T00:17:16.884Z,88.58
2018-03-07T00:19:45.247Z,88.73
2018-03-07T00:22:15.431Z,89.07
2018-03-07T00:24:44.591Z,89.18
2018-03-07T00:27:13.030Z,89.09
2018-03-07T00:29:41.315Z,89.34
2018-03-07T00:32:09.621Z,89.54
2018-03-07T00:34:37.897Z,90.15
2018-03-07T00:37:06.967Z,90.28
2018-03-07T00:39:35.240Z,89.32
2018-03-07T00:42:03.524Z,89.97
2018-03-07T00:44:31.797Z,90.07
2018-03-07T00:47:00.129Z,90.48
2018-03-07T00:49:28.435Z,91.96
2018-03-07T00:51:57.599Z,91.95
2018-03-07T00:54:25.867Z,92.61
2018-03-07T00:56:54.128Z,93.31
2018-03-07T00:59:23.207Z,93.53
2018-03-07T01:01:51.457Z,93.11
2018-03-07T01:04:19.749Z,93.56
2018-03-07T01:06:48.104Z,93.75
2018-03-07T01:09:17.191Z,93.98
2018-03-07T01:11:46.315Z,94.72
2018-03-07T01:14:14.816Z,95.02
2018-03-07T01:16:43.973Z,95.25
2018-03-07T01:19:12.317Z,94.96
2018-03-07T01:21:42.435Z,94.97
2018-03-07T01:24:10.707Z,94.84
2018-03-07T01:26:38.972Z,95.19
2018-03-07T01:29:07.229Z,95.89
2018-03-07T01:31:36.238Z,96.18
2018-03-07T01:34:05.263Z,96.37
2018-03-07T01:36:33.516Z,96.32
2018-03-07T01:39:01.783Z,96.90
2018-03-07T01:41:30.037Z,97.25
2018-03-07T01:43:58.297Z,96.57
2018-03-07T01:46:27.334Z,96.51
2018-03-07T01:48:55.649Z,97.04
2018-03-07T01:51:23.947Z,96.96
2018-03-07T01:53:52.235Z,97.39
2018-03-07T01:56:20.520Z,96.88
2018-03-07T01:58:48.830Z,96.80
2018-03-07T02:01:17.101Z,96.28
2018-03-07T02:03:51.280Z,96.84
2018-03-07T02:06:19.563Z,96.49
2018-03-07T02:08:47.865Z,96.22
2018-03-07T02:11:16.127Z,95.35
2018-03-07T02:13:44.609Z,94.98
2018-03-07T02:16:12.966Z,95.45
2018-03-07T02:18:41.347Z,95.81
2018-03-07T02:21:09.604Z,96.06
2018-03-07T02:23:37.870Z,96.13
2018-03-07T02:26:06.153Z,96.00
2018-03-07T02:28:34.441Z,96.14
2018-03-07T02:31:02.720Z,96.23
2018-03-07T02:33:31.010Z,96.31
2018-03-07T02:35:59.287Z,95.67
2018-03-07T02:38:27.562Z,95.49
2018-03-07T02:40:56.601Z,95.93
2018-03-07T02:43:24.878Z,96.24
2018-03-07T02:45:53.136Z,96.17
2018-03-07T02:48:21.409Z,96.30
2018-03-07T02:50:51.172Z,96.29
2018-03-07T02:53:19.440Z,96.36
2018-03-07T02:55:47.727Z,96.39
2018-03-07T02:58:16.032Z,96.60
2018-03-07T03:00:44.449Z,96.64
2018-03-07T03:03:12.768Z,97.11
2018-03-07T03:05:41.064Z,97.52
2018-03-07T03:08:10.090Z,97.03
2018-03-07T03:10:38.348Z,97.22
2018-03-07T03:13:07.398Z,97.07
2018-03-07T03:15:35.680Z,96.72
2018-03-07T03:18:03.927Z,97.35
2018-03-07T03:20:32.229Z,96.68
2018-03-07T03:23:00.523Z,97.17
2018-03-07T03:25:29.555Z,96.88
2018-03-07T03:27:57.850Z,95.65
2018-03-07T03:30:26.116Z,94.57
2018-03-07T03:32:55.146Z,94.33
2018-03-07T03:35:23.414Z,94.11
2018-03-07T03:37:52.428Z,94.33
2018-03-07T03:40:20.731Z,94.47
2018-03-07T03:42:48.982Z,95.26
2018-03-07T03:45:17.373Z,95.60
2018-03-07T03:47:46.440Z,95.25
2018-03-07T03:50:15.500Z,94.45
2018-03-07T03:52:44.906Z,95.03
2018-03-07T03:55:13.270Z,94.87
2018-03-07T03:57:41.597Z,94.80
2018-03-07T04:00:09.868Z,93.86
2018-03-07T04:02:38.162Z,94.34
2018-03-07T04:05:07.202Z,93.96
2018-03-07T04:07:35.467Z,93.66
2018-03-07T04:10:04.520Z,94.40
2018-03-07T04:12:33.562Z,94.89
2018-03-07T04:15:01.862Z,95.19
2018-03-07T04:17:30.942Z,95.83
2018-03-07T04:19:59.190Z,95.51
2018-03-07T04:22:27.468Z,94.88
2018-03-07T04:24:57.223Z,93.74
2018-03-07T04:27:25.484Z,92.60
2018-03-07T04:29:53.748Z,91.55
2018-03-07T04:32:22.019Z,90.62
2018-03-07T04:34:50.273Z,90.69
2018-03-07T04:37:18.544Z,89.86
2018-03-07T04:39:46.824Z,89.93
2018-03-07T04:42:15.139Z,90.37
2018-03-07T04:44:43.436Z,90.17
2018-03-07T04:47:11.831Z,90.52
2018-03-07T04:49:40.093Z,90.67
2018-03-07T04:52:08.365Z,90.38
2018-03-07T04:54:37.391Z,90.57
2018-03-07T04:57:05.652Z,90.22
2018-03-07T04:59:34.677Z,89.75
2018-03-07T05:02:02.984Z,89.38
2018-03-07T05:04:31.300Z,89.26
2018-03-07T05:07:00.428Z,89.60
2018-03-07T05:09:28.677Z,88.89
2018-03-07T05:11:56.951Z,88.67
2018-03-07T05:14:25.200Z,88.70
2018-03-07T05:16:53.473Z,88.27
2018-03-07T05:19:21.745Z,87.72
2018-03-07T05:21:50.025Z,87.59
2018-03-07T05:24:18.282Z,87.90
2018-03-07T05:26:47.334Z,88.17
2018-03-07T05:29:15.643Z,88.29
2018-03-07T05:31:44.157Z,88.87
2018-03-07T05:34:13.230Z,88.55
2018-03-07T05:36:41.530Z,88.07
2018-03-07T05:39:09.804Z,88.09
2018-03-07T05:41:38.956Z,88.46
2018-03-07T05:44:08.043Z,88.89
2018-03-07T05:46:36.284Z,89.53
2018-03-07T05:49:04.553Z,89.29
2018-03-07T05:51:33.571Z,89.66
2018-03-07T05:54:01.895Z,89.82
2018-03-07T05:56:30.200Z,90.12
2018-03-07T05:58:58.481Z,90.26
2018-03-07T06:01:26.732Z,90.13
2018-03-07T06:03:55.029Z,90.24
2018-03-07T06:06:23.411Z,89.72
2018-03-07T06:08:51.664Z,88.54
2018-03-07T06:11:19.940Z,87.76
2018-03-07T06:13:48.247Z,87.78
2018-03-07T06:16:17.328Z,87.74
2018-03-07T06:18:45.626Z,86.92
2018-03-07T06:21:13.934Z,86.98
2018-03-07T06:23:42.975Z,86.35
2018-03-07T06:26:11.391Z,86.43
2018-03-07T06:28:39.663Z,86.84
2018-03-07T06:31:07.916Z,87.16
2018-03-07T06:33:37.320Z,87.42
2018-03-07T06:36:05.588Z,86.93
2018-03-07T06:38:35.589Z,86.98
2018-03-07T06:41:03.911Z,86.50
2018-03-07T06:43:32.174Z,85.99
2018-03-07T06:46:00.481Z,86.06
2018-03-07T06:48:28.753Z,85.88
2018-03-07T06:50:57.012Z,85.87
2018-03-07T06:53:26.046Z,85.49
2018-03-07T06:55:54.337Z,85.10
2018-03-07T06:58:22.623Z,85.52
2018-03-07T07:00:50.886Z,85.73
2018-03-07T07:03:19.887Z,86.17
2018-03-07T07:05:48.355Z,85.44
2018-03-07T07:08:16.661Z,85.12
2018-03-07T07:10:45.780Z,83.98
2018-03-07T07:13:14.838Z,84.08
2018-03-07T07:15:43.234Z,84.33
2018-03-07T07:18:12.355Z,83.75
2018-03-07T07:20:40.643Z,83.55
2018-03-07T07:23:08.952Z,82.68
2018-03-07T07:25:37.228Z,82.42
2018-03-07T07:28:05.483Z,82.70
2018-03-07T07:30:33.769Z,82.21
2018-03-07T07:33:02.103Z,81.81
2018-03-07T07:35:30.408Z,81.60
2018-03-07T07:37:58.673Z,81.15
2018-03-07T07:40:26.947Z,81.33
2018-03-07T07:42:55.233Z,80.56
2018-03-07T07:45:23.594Z,80.57
2018-03-07T07:47:51.853Z,80.16
2018-03-07T07:50:20.119Z,78.97
2018-03-07T07:52:48.363Z,79.13
2018-03-07T07:55:16.637Z,78.61
2018-03-07T07:57:45.743Z,77.59
2018-03-07T08:00:14.845Z,77.58
2018-03-07T08:02:43.182Z,77.35
2018-03-07T08:05:11.546Z,76.01
2018-03-07T08:07:39.836Z,75.49
2018-03-07T08:10:08.109Z,75.62
2018-03-07T08:12:37.123Z,75.50
2018-03-07T08:15:06.165Z,76.39
2018-03-07T08:17:34.444Z,75.78
2018-03-07T08:20:03.485Z,75.10
2018-03-07T08:22:31.822Z,73.01
2018-03-07T08:25:00.160Z,72.06
2018-03-07T08:27:28.431Z,71.51
2018-03-07T08:29:56.689Z,72.34
2018-03-07T08:32:25.700Z,72.23
2018-03-07T08:34:54.837Z,71.50
2018-03-07T08:37:23.109Z,71.04
2018-03-07T08:39:51.374Z,70.49
2018-03-07T08:42:20.395Z,69.50
2018-03-07T08:44:49.437Z,70.03
2018-03-07T08:47:17.767Z,69.09
2018-03-07T08:49:46.048Z,68.91
2018-03-07T08:52:14.406Z,68.24
2018-03-07T08:54:43.489Z,67.86
2018-03-07T08:57:11.814Z,67.82
2018-03-07T08:59:40.109Z,67.05
2018-03-07T09:02:08.380Z,66.91
2018-03-07T09:04:36.667Z,65.77
2018-03-07T09:07:04.925Z,66.34
2018-03-07T09:09:33.957Z,64.84
2018-03-07T09:12:02.280Z,65.27
2018-03-07T09:14:30.659Z,63.39
2018-03-07T09:16:58.921Z,61.97
2018-03-07T09:19:27.204Z,61.89
2018-03-07T09:21:55.471Z,60.70
2018-03-07T09:24:24.477Z,59.54
2018-03-07T09:26:53.514Z,58.73
2018-03-07T09:29:21.777Z,58.93
2018-03-07T09:31:51.226Z,60.70
2018-03-07T09:34:19.472Z,60.92
2018-03-07T09:36:49.088Z,60.92
2018-03-07T09:39:17.406Z,62.34
2018-03-07T09:41:45.680Z,62.28
2018-03-07T09:44:14.752Z,62.34
2018-03-07T09:46:43.252Z,63.69
2018-03-07T09:49:12.547Z,64.94
2018-03-07T09:51:41.008Z,65.92
2018-03-07T09:54:10.044Z,67.43
2018-03-07T09:56:38.624Z,67.38
2018-03-07T09:59:07.802Z,69.67
2018-03-07T10:01:37.022Z,70.35
2018-03-07T10:04:05.605Z,75.79
2018-03-07T10:06:35.501Z,77.12
2018-03-07T10:09:04.479Z,76.30
2018-03-07T10:11:32.899Z,75.99
2018-03-07T10:14:01.347Z,78.15
2018-03-07T10:16:30.732Z,76.73
2018-03-07T10:18:59.323Z,75.84
2018-03-07T10:21:28.525Z,70.94
2018-03-07T10:23:57.059Z,66.08
2018-03-07T10:26:25.493Z,63.47
2018-03-07T10:28:53.968Z,62.35
2018-03-07T10:31:22.606Z,61.19
2018-03-07T10:33:51.204Z,57.18
2018-03-07T10:36:19.769Z,56.20
2018-03-07T10:38:48.523Z,54.69
2018-03-07T10:41:18.051Z,56.32
2018-03-07T10:43:46.756Z,55.82
2018-03-07T10:46:15.468Z,56.53
2018-03-07T10:48:44.304Z,56.26
2018-03-07T10:51:13.557Z,57.02
2018-03-07T10:53:42.622Z,55.34
2018-03-07T10:56:12.770Z,55.58
2018-03-07T10:58:41.719Z,54.25
2018-03-07T11:01:11.393Z,53.25
2018-03-07T11:03:44.419Z,51.17
2018-03-07T11:06:13.167Z,49.63
2018-03-07T11:08:43.697Z,48.11
2018-03-07T11:11:12.793Z,49.23
2018-03-07T11:13:42.300Z,49.00
2018-03-07T11:16:10.852Z,48.62
2018-03-07T11:18:39.574Z,46.78
2018-03-07T11:21:08.082Z,47.04
2018-03-07T11:23:37.544Z,47.70
2018-03-07T11:26:06.750Z,46.64
2018-03-07T11:28:35.595Z,48.07
2018-03-07T11:31:04.265Z,46.90
2018-03-07T11:33:33.165Z,46.69
2018-03-07T11:36:02.341Z,46.67
2018-03-07T11:38:33.682Z,47.43
2018-03-07T11:41:02.470Z,47.90
2018-03-07T11:43:30.988Z,48.18
2018-03-07T11:46:04.361Z,48.16
2018-03-07T11:48:33.819Z,47.89
2018-03-07T11:51:04.331Z,48.02
2018-03-07T11:53:33.824Z,49.66
2018-03-07T11:56:03.150Z,49.41
2018-03-07T11:58:31.862Z,48.91
2018-03-07T12:01:00.485Z,47.35
2018-03-07T12:03:31.004Z,47.37
2018-03-07T12:06:00.488Z,46.91
2018-03-07T12:08:29.138Z,46.33
2018-03-07T12:10:58.606Z,47.23
2018-03-07T12:13:27.326Z,46.60
2018-03-07T12:15:55.766Z,44.36
2018-03-07T12:18:24.420Z,44.16
2018-03-07T12:20:53.926Z,44.76
2018-03-07T12:23:22.462Z,45.17
2018-03-07T12:25:51.113Z,45.92
2018-03-07T12:28:20.482Z,45.73
2018-03-07T12:30:49.739Z,45.77
2018-03-07T12:33:18.247Z,45.81
2018-03-07T12:35:46.929Z,45.04
2018-03-07T12:38:15.700Z,44.45
2018-03-07T12:40:44.375Z,44.89
2018-03-07T12:43:13.413Z,44.36
2018-03-07T12:45:42.059Z,43.82
2018-03-07T12:48:10.772Z,44.93
2018-03-07T12:50:40.056Z,45.25
2018-03-07T12:53:08.441Z,45.26
2018-03-07T12:55:38.065Z,45.64
2018-03-07T12:58:06.453Z,46.34
2018-03-07T13:00:35.323Z,45.44
2018-03-07T13:03:04.713Z,45.90
2018-03-07T13:05:33.345Z,47.43
2018-03-07T13:08:01.911Z,47.48
2018-03-07T13:10:34.457Z,48.34
2018-03-07T13:13:04.914Z,48.94
2018-03-07T13:15:34.612Z,49.21
2018-03-07T13:18:03.156Z,50.06
2018-03-07T13:20:40.559Z,50.88
2018-03-07T13:23:10.696Z,50.86
2018-03-07T13:25:39.985Z,51.71
2018-03-07T13:28:09.170Z,49.83
2018-03-07T13:30:37.973Z,50.02
2018-03-07T13:33:06.464Z,50.79
2018-03-07T13:35:35.023Z,49.43
2018-03-07T13:38:04.544Z,49.96
2018-03-07T13:40:33.866Z,48.89
2018-03-07T13:43:03.040Z,48.91
2018-03-07T13:45:31.521Z,49.60
2018-03-07T13:48:01.487Z,50.70
2018-03-07T13:50:30.880Z,48.97
2018-03-07T13:53:00.415Z,49.49
2018-03-07T13:55:28.845Z,49.69
2018-03-07T13:57:58.379Z,49.32
2018-03-07T14:00:27.041Z,48.10
2018-03-07T14:02:55.623Z,47.95
2018-03-07T14:05:24.631Z,48.24
2018-03-07T14:07:55.218Z,46.21
2018-03-07T14:10:24.290Z,46.67
2018-03-07T14:12:52.656Z,46.51
2018-03-07T14:15:20.933Z,46.89
2018-03-07T14:17:49.224Z,47.33
2018-03-07T14:20:17.541Z,47.29
2018-03-07T14:22:46.728Z,46.83
2018-03-07T14:25:15.923Z,48.22
2018-03-07T14:27:44.354Z,47.84
2018-03-07T14:30:12.823Z,46.84
2018-03-07T14:32:41.156Z,46.84
2018-03-07T14:35:10.217Z,46.45
2018-03-07T14:37:38.557Z,46.89
2018-03-07T14:40:07.613Z,46.19
2018-03-07T14:42:36.051Z,46.06
2018-03-07T14:45:04.324Z,47.33
2018-03-07T14:47:32.669Z,47.27
2018-03-07T14:50:00.958Z,47.66
2018-03-07T14:52:29.320Z,47.92
2018-03-07T14:54:58.394Z,47.94
2018-03-07T14:57:26.845Z,47.72
2018-03-07T14:59:55.226Z,47.66
2018-03-07T15:02:24.387Z,47.33
2018-03-07T15:04:53.272Z,47.39
2018-03-07T15:07:21.624Z,48.13
2018-03-07T15:09:49.923Z,48.23
2018-03-07T15:12:19.071Z,48.03
2018-03-07T15:14:47.442Z,48.47
2018-03-07T15:17:15.784Z,48.94
2018-03-07T15:19:45.759Z,49.34
2018-03-07T15:22:14.244Z,50.31
2018-03-07T15:24:42.661Z,49.74
2018-03-07T15:27:10.956Z,49.97
2018-03-07T15:29:39.224Z,48.99
2018-03-07T15:32:07.513Z,48.99
2018-03-07T15:34:35.811Z,49.98
2018-03-07T15:37:04.161Z,49.68
2018-03-07T15:39:33.242Z,49.74
2018-03-07T15:42:01.557Z,49.39
2018-03-07T15:44:30.595Z,49.54
2018-03-07T15:46:58.860Z,49.72
2018-03-07T15:49:27.996Z,50.01
2018-03-07T15:51:56.304Z,49.35
2018-03-07T15:54:24.622Z,50.35
2018-03-07T15:56:52.875Z,50.33
2018-03-07T15:59:21.164Z,50.50
2018-03-07T16:01:49.421Z,50.23
2018-03-07T16:04:18.523Z,50.30
2018-03-07T16:06:47.668Z,51.57
2018-03-07T16:09:15.979Z,51.58
2018-03-07T16:11:44.505Z,51.57
2018-03-07T16:14:12.886Z,51.92
2018-03-07T16:16:41.244Z,55.94
2018-03-07T16:19:10.490Z,59.80
2018-03-07T16:21:38.847Z,61.40
2018-03-07T16:24:07.146Z,62.12
2018-03-07T16:26:35.527Z,61.91
2018-03-07T16:29:03.800Z,59.69
2018-03-07T16:31:32.271Z,60.12
2018-03-07T16:34:00.557Z,60.87
2018-03-07T16:36:29.617Z,60.42
2018-03-07T16:38:57.901Z,61.09
2018-03-07T16:41:26.173Z,61.40
2018-03-07T16:43:54.448Z,61.30
2018-03-07T16:46:22.724Z,62.03
2018-03-07T16:48:51.769Z,62.86
2018-03-07T16:51:20.150Z,62.99
2018-03-07T16:53:48.483Z,60.12
2018-03-07T16:56:17.178Z,60.47
2018-03-07T16:58:45.633Z,61.21
2018-03-07T17:01:14.227Z,60.63
2018-03-07T17:03:42.796Z,60.73
2018-03-07T17:06:11.140Z,60.99
2018-03-07T17:08:42.076Z,62.05
2018-03-07T17:11:12.885Z,62.42
2018-03-07T17:13:42.288Z,62.56
2018-03-07T17:16:10.741Z,63.18
2018-03-07T17:18:39.883Z,63.40
2018-03-07T17:21:08.954Z,64.36
2018-03-07T17:23:37.221Z,64.70
2018-03-07T17:26:05.524Z,66.07
2018-03-07T17:28:34.136Z,66.35
2018-03-07T17:31:06.773Z,67.20
2018-03-07T17:33:35.653Z,68.15
2018-03-07T17:36:04.203Z,68.14
2018-03-07T17:38:32.798Z,68.37
2018-03-07T17:41:05.465Z,68.69
2018-03-07T17:43:35.792Z,69.46
2018-03-07T17:46:06.139Z,69.16
2018-03-07T17:48:42.189Z,69.48
2018-03-07T17:51:13.073Z,69.16
2018-03-07T17:53:41.569Z,69.92
2018-03-07T17:56:10.653Z,70.24
2018-03-07T17:58:38.918Z,71.23
2018-03-07T18:01:07.221Z,71.78
2018-03-07T18:03:35.499Z,71.90
2018-03-07T18:06:03.848Z,72.78
2018-03-07T18:08:32.153Z,73.16
2018-03-07T18:11:00.442Z,73.24
2018-03-07T18:13:28.753Z,73.28
2018-03-07T18:15:57.067Z,72.62
2018-03-07T18:18:26.212Z,72.45
2018-03-07T18:20:54.464Z,73.07
2018-03-07T18:23:22.740Z,73.28
2018-03-07T18:25:51.028Z,73.29
2018-03-07T18:28:19.318Z,72.92
2018-03-07T18:30:47.636Z,72.86
2018-03-07T18:33:16.301Z,73.45
2018-03-07T18:35:45.421Z,73.93
2018-03-07T18:38:13.770Z,74.11
2018-03-07T18:40:43.282Z,74.41
2018-03-07T18:43:11.963Z,74.40
2018-03-07T18:45:41.661Z,74.67
2018-03-07T18:48:10.745Z,74.69
2018-03-07T18:50:41.153Z,74.71
2018-03-07T18:53:13.276Z,75.27
2018-03-07T18:55:41.695Z,75.82
2018-03-07T18:58:10.741Z,75.63
2018-03-07T19:00:39.019Z,76.41
2018-03-07T19:03:07.292Z,76.55
2018-03-07T19:05:36.380Z,76.61
2018-03-07T19:08:04.689Z,76.70
2018-03-07T19:10:35.198Z,76.84
2018-03-07T19:13:03.483Z,77.91
2018-03-07T19:15:31.756Z,77.74
2018-03-07T19:18:00.042Z,77.85
2018-03-07T19:20:29.079Z,77.78
2018-03-07T19:22:57.332Z,76.98
2018-03-07T19:25:25.613Z,76.83
2018-03-07T19:27:53.871Z,76.78
2018-03-07T19:30:22.939Z,76.30
2018-03-07T19:32:51.201Z,76.08
2018-03-07T19:35:19.499Z,75.85
2018-03-07T19:37:47.759Z,75.68
2018-03-07T19:40:16.077Z,75.53
2018-03-07T19:42:44.407Z,75.83
2018-03-07T19:45:13.460Z,76.12
2018-03-07T19:47:41.843Z,76.73
2018-03-07T19:50:10.105Z,76.44
2018-03-07T19:52:39.128Z,76.51
2018-03-07T19:55:07.396Z,76.88
2018-03-07T19:57:36.414Z,77.14
2018-03-07T20:00:09.276Z,76.91
2018-03-07T20:02:38.252Z,77.56
2018-03-07T20:05:06.514Z,77.74
2018-03-07T20:07:34.789Z,78.39
2018-03-07T20:10:03.836Z,78.48
2018-03-07T20:12:32.124Z,78.87
2018-03-07T20:15:01.243Z,79.48
2018-03-07T20:17:29.501Z,79.99
2018-03-07T20:19:57.764Z,80.32
2018-03-07T20:22:26.032Z,80.95
2018-03-07T20:24:54.312Z,80.79
2018-03-07T20:27:22.590Z,80.56
2018-03-07T20:29:50.879Z,80.29
2018-03-07T20:32:19.177Z,80.32
2018-03-07T20:34:47.466Z,79.74
2018-03-07T20:37:15.847Z,81.31
2018-03-07T20:39:47.674Z,82.27
2018-03-07T20:42:17.491Z,83.05
2018-03-07T20:44:45.783Z,84.01
2018-03-07T20:47:15.587Z,84.12
2018-03-07T20:49:43.966Z,84.13
2018-03-07T20:52:13.923Z,83.49
2018-03-07T20:54:44.339Z,83.96
2018-03-07T20:57:14.669Z,83.71
2018-03-07T20:59:44.895Z,83.84
2018-03-07T21:02:14.497Z,83.73
2018-03-07T21:04:43.038Z,83.58
2018-03-07T21:07:12.260Z,83.87
2018-03-07T21:09:42.308Z,85.24
2018-03-07T21:12:13.537Z,84.43
2018-03-07T21:14:41.912Z,85.32
2018-03-07T21:17:10.261Z,86.19
2018-03-07T21:19:38.556Z,86.28
2018-03-07T21:22:06.855Z,86.17
2018-03-07T21:24:35.115Z,85.82
2018-03-07T21:27:04.217Z,85.98
2018-03-07T21:29:33.252Z,86.05
2018-03-07T21:32:01.541Z,84.95
2018-03-07T21:34:29.820Z,84.46
2018-03-07T21:36:58.104Z,85.48
2018-03-07T21:39:26.369Z,85.53
2018-03-07T21:41:54.653Z,86.00
2018-03-07T21:44:22.936Z,85.76
2018-03-07T21:46:51.203Z,85.14
2018-03-07T21:49:19.466Z,84.80
2018-03-07T21:51:47.813Z,84.48
2018-03-07T21:54:17.163Z,85.10
2018-03-07T21:56:46.421Z,85.06
2018-03-07T21:59:15.557Z,85.32
2018-03-07T22:01:43.930Z,86.60
2018-03-07T22:04:12.325Z,87.18
2018-03-07T22:06:40.619Z,87.69
2018-03-07T22:09:14.525Z,87.73
2018-03-07T22:11:42.958Z,86.76
2018-03-07T22:14:11.437Z,86.59
2018-03-07T22:16:39.931Z,86.81
2018-03-07T22:19:08.210Z,85.89
2018-03-07T22:21:36.503Z,85.64
2018-03-07T22:24:04.760Z,85.94
2018-03-07T22:26:33.145Z,86.05
2018-03-07T22:29:01.465Z,85.94
2018-03-07T22:31:29.766Z,86.45
2018-03-07T22:33:58.033Z,86.46
2018-03-07T22:36:26.299Z,86.07
2018-03-07T22:38:54.573Z,86.00
2018-03-07T22:41:22.904Z,86.07
2018-03-07T22:43:51.186Z,86.31
2018-03-07T22:46:19.464Z,85.93
2018-03-07T22:48:47.788Z,85.53
2018-03-07T22:51:16.845Z,85.87
2018-03-07T22:53:45.220Z,86.02
2018-03-07T22:56:14.649Z,85.56
2018-03-07T22:58:43.253Z,85.84
2018-03-07T23:01:11.636Z,85.37
2018-03-07T23:03:39.924Z,84.89
2018-03-07T23:06:08.182Z,84.55
2018-03-07T23:08:36.474Z,84.97
2018-03-07T23:11:04.786Z,84.98
2018-03-07T23:13:33.138Z,85.16
2018-03-07T23:16:02.544Z,84.48
2018-03-07T23:18:30.867Z,84.79
2018-03-07T23:21:00.631Z,84.82
2018-03-07T23:23:30.838Z,85.48
2018-03-07T23:25:59.861Z,85.36
2018-03-07T23:28:28.154Z,85.95
2018-03-07T23:30:56.418Z,85.45
2018-03-07T23:33:25.465Z,86.10
2018-03-07T23:35:53.745Z,86.29
2018-03-07T23:38:22.051Z,85.69
2018-03-07T23:40:50.305Z,85.62
2018-03-07T23:43:18.573Z,86.73
2018-03-07T23:45:46.856Z,87.18
2018-03-07T23:48:15.977Z,87.53
2018-03-07T23:50:44.370Z,88.32
2018-03-07T23:53:12.875Z,88.22
2018-03-07T23:55:41.130Z,87.86
2018-03-07T23:58:09.447Z,87.13
